createdAt,value
2023-03-15T00:01:34.459Z,41.81
2023-03-15T00:04:06.154Z,41.43
2023-03-15T00:06:34.740Z,41.18
2023-03-15T00:09:03.390Z,41.53
2023-03-15T00:11:32.463Z,39.84
2023-03-15T00:14:02.641Z,39.63
2023-03-15T00:16:33.029Z,39.85
2023-03-15T00:19:01.788Z,40.02
2023-03-15T00:21:31.630Z,38.84
2023-03-15T00:23:59.861Z,39.86
2023-03-15T00:26:28.251Z,40.15
2023-03-15T00:28:56.480Z,39.65
2023-03-15T00:31:26.395Z,39.83
2023-03-15T00:33:55.276Z,39.21
2023-03-15T00:36:25.776Z,40.01
2023-03-15T00:38:57.157Z,40.10
2023-03-15T00:41:25.919Z,39.25
2023-03-15T00:43:54.500Z,38.99
2023-03-15T00:46:22.703Z,37.99
2023-03-15T00:48:53.898Z,39.12
2023-03-15T00:51:24.444Z,38.73
2023-03-15T00:53:55.321Z,38.64
2023-03-15T00:56:25.376Z,38.07
2023-03-15T00:58:54.182Z,38.35
2023-03-15T01:01:24.507Z,39.09
2023-03-15T01:03:53.274Z,38.38
2023-03-15T01:06:23.846Z,38.96
2023-03-15T01:08:52.715Z,39.00
2023-03-15T01:11:25.856Z,39.00
2023-03-15T01:13:55.179Z,38.72
2023-03-15T01:16:23.873Z,39.39
2023-03-15T01:18:52.826Z,39.38
2023-03-15T01:21:22.269Z,39.00
2023-03-15T01:23:50.859Z,39.31
2023-03-15T01:26:19.431Z,39.33
2023-03-15T01:28:49.079Z,39.58
2023-03-15T01:31:20.908Z,39.54
2023-03-15T01:33:49.334Z,39.57
2023-03-15T01:36:17.668Z,38.90
2023-03-15T01:38:46.707Z,38.93
2023-03-15T01:41:15.655Z,39.37
2023-03-15T01:43:47.495Z,39.31
2023-03-15T01:46:34.890Z,39.82
2023-03-15T01:49:08.706Z,39.69
2023-03-15T01:51:41.800Z,39.61
2023-03-15T01:54:14.969Z,39.23
2023-03-15T01:56:47.743Z,39.45
2023-03-15T01:59:20.659Z,39.69
2023-03-15T02:01:54.684Z,39.42
2023-03-15T02:04:26.148Z,39.83
2023-03-15T02:06:59.415Z,39.32
2023-03-15T02:09:31.994Z,39.68
2023-03-15T02:12:01.086Z,39.53
2023-03-15T02:14:30.306Z,39.63
2023-03-15T02:17:00.055Z,40.44
2023-03-15T02:19:41.737Z,40.66
2023-03-15T02:22:23.815Z,40.59
2023-03-15T02:25:00.158Z,41.04
2023-03-15T02:27:34.570Z,41.31
2023-03-15T02:30:05.381Z,41.21
2023-03-15T02:32:33.676Z,41.17
2023-03-15T02:35:01.904Z,41.43
2023-03-15T02:37:30.103Z,41.77
2023-03-15T02:39:58.236Z,42.21
2023-03-15T02:42:27.000Z,42.68
2023-03-15T02:44:58.902Z,42.18
2023-03-15T02:47:31.643Z,42.60
2023-03-15T02:49:59.909Z,42.67
2023-03-15T02:52:28.157Z,43.11
2023-03-15T02:54:56.300Z,43.70
2023-03-15T02:57:24.502Z,44.65
2023-03-15T02:59:52.690Z,43.54
2023-03-15T03:02:23.925Z,44.29
2023-03-15T03:04:52.770Z,46.09
2023-03-15T03:07:20.936Z,47.65
2023-03-15T03:09:49.138Z,47.09
2023-03-15T03:12:17.300Z,46.15
2023-03-15T03:14:45.537Z,44.01
2023-03-15T03:17:13.749Z,43.44
2023-03-15T03:19:43.458Z,43.72
2023-03-15T03:22:13.387Z,43.93
2023-03-15T03:24:46.243Z,43.21
2023-03-15T03:27:15.276Z,43.64
2023-03-15T03:29:43.597Z,43.72
2023-03-15T03:32:12.219Z,44.39
2023-03-15T03:34:40.341Z,44.66
2023-03-15T03:37:10.032Z,45.55
2023-03-15T03:39:38.220Z,45.76
2023-03-15T03:42:06.895Z,45.76
2023-03-15T03:44:35.119Z,45.71
2023-03-15T03:47:03.364Z,45.96
2023-03-15T03:49:31.574Z,47.04
2023-03-15T03:52:00.493Z,47.78
2023-03-15T03:54:32.253Z,50.15
2023-03-15T03:57:00.438Z,50.05
2023-03-15T03:59:28.631Z,49.85
2023-03-15T04:01:56.784Z,50.43
2023-03-15T04:04:26.483Z,48.22
2023-03-15T04:06:54.726Z,48.58
2023-03-15T04:09:25.153Z,48.92
2023-03-15T04:11:54.751Z,50.53
2023-03-15T04:14:23.026Z,51.55
2023-03-15T04:16:51.181Z,52.05
2023-03-15T04:19:19.417Z,50.27
2023-03-15T04:21:47.835Z,51.35
2023-03-15T04:24:16.049Z,51.00
2023-03-15T04:26:44.215Z,52.49
2023-03-15T04:29:15.377Z,53.02
2023-03-15T04:31:43.653Z,50.98
2023-03-15T04:34:11.883Z,51.65
2023-03-15T04:36:40.092Z,51.53
2023-03-15T04:39:08.319Z,52.41
2023-03-15T04:41:36.963Z,52.38
2023-03-15T04:44:05.881Z,51.52
2023-03-15T04:46:35.602Z,51.61
2023-03-15T04:49:06.149Z,50.05
2023-03-15T04:51:35.170Z,46.95
2023-03-15T04:54:04.325Z,49.19
2023-03-15T04:56:32.584Z,48.92
2023-03-15T04:59:00.821Z,48.24
2023-03-15T05:01:32.129Z,47.95
2023-03-15T05:04:01.647Z,47.42
2023-03-15T05:06:30.443Z,47.22
2023-03-15T05:08:58.663Z,48.35
2023-03-15T05:11:27.061Z,45.85
2023-03-15T05:13:55.290Z,45.97
2023-03-15T05:16:23.589Z,47.28
2023-03-15T05:18:51.756Z,47.51
2023-03-15T05:21:21.215Z,45.24
2023-03-15T05:23:49.411Z,45.15
2023-03-15T05:26:17.546Z,44.46
2023-03-15T05:28:46.000Z,45.25
2023-03-15T05:31:14.313Z,44.53
2023-03-15T05:33:47.185Z,44.25
2023-03-15T05:36:15.833Z,43.61
2023-03-15T05:38:45.789Z,43.51
2023-03-15T05:41:18.433Z,44.49
2023-03-15T05:43:46.722Z,43.96
2023-03-15T05:46:15.032Z,43.61
2023-03-15T05:48:43.473Z,43.71
2023-03-15T05:51:13.364Z,42.98
2023-03-15T05:53:41.640Z,43.57
2023-03-15T05:56:11.570Z,43.24
2023-03-15T05:58:40.072Z,43.04
2023-03-15T06:01:08.277Z,43.58
2023-03-15T06:03:36.642Z,43.75
2023-03-15T06:06:05.279Z,44.24
2023-03-15T06:08:33.476Z,44.02
2023-03-15T06:11:01.743Z,44.37
2023-03-15T06:13:31.526Z,44.22
2023-03-15T06:15:59.676Z,45.01
2023-03-15T06:18:27.831Z,44.81
2023-03-15T06:23:24.791Z,45.36
2023-03-15T06:25:53.013Z,45.90
2023-03-15T06:28:21.266Z,45.95
2023-03-15T06:30:50.929Z,46.10
2023-03-15T06:33:19.264Z,46.22
2023-03-15T06:35:48.109Z,46.38
2023-03-15T06:38:16.379Z,46.69
2023-03-15T06:40:45.457Z,46.90
2023-03-15T06:43:19.572Z,46.97
2023-03-15T06:45:48.581Z,46.89
2023-03-15T06:48:18.661Z,47.17
2023-03-15T06:50:47.864Z,46.99
2023-03-15T06:53:16.382Z,47.01
2023-03-15T06:55:44.825Z,47.33
2023-03-15T06:58:13.237Z,47.18
2023-03-15T07:00:41.717Z,47.27
2023-03-15T07:03:09.966Z,46.84
2023-03-15T07:05:39.600Z,47.07
2023-03-15T07:08:07.887Z,47.23
2023-03-15T07:10:36.574Z,47.51
2023-03-15T07:13:07.044Z,47.24
2023-03-15T07:15:37.669Z,47.36
2023-03-15T07:18:05.930Z,47.55
2023-03-15T07:20:36.226Z,47.69
2023-03-15T07:23:07.217Z,47.61
2023-03-15T07:25:48.353Z,47.47
2023-03-15T07:28:23.031Z,47.67
2023-03-15T07:30:55.568Z,47.46
2023-03-15T07:33:24.762Z,47.49
2023-03-15T07:35:54.687Z,47.41
2023-03-15T07:38:25.290Z,47.86
2023-03-15T07:40:53.841Z,47.66
2023-03-15T07:43:22.539Z,47.69
2023-03-15T07:45:51.050Z,47.87
2023-03-15T07:48:19.463Z,47.52
2023-03-15T07:50:47.819Z,47.74
2023-03-15T07:53:16.384Z,47.47
2023-03-15T07:55:48.718Z,47.89
2023-03-15T07:58:20.122Z,47.30
2023-03-15T08:00:48.826Z,47.74
2023-03-15T08:03:17.202Z,47.15
2023-03-15T08:05:45.345Z,47.66
2023-03-15T08:08:13.484Z,47.43
2023-03-15T08:10:41.664Z,47.76
2023-03-15T08:13:11.188Z,47.37
2023-03-15T08:15:39.344Z,47.66
2023-03-15T08:18:07.542Z,46.58
2023-03-15T08:20:35.828Z,47.00
2023-03-15T08:23:04.016Z,46.39
2023-03-15T08:25:32.270Z,46.30
2023-03-15T08:28:00.411Z,45.03
2023-03-15T08:30:30.251Z,45.86
2023-03-15T08:32:58.479Z,46.07
2023-03-15T08:35:26.774Z,46.37
2023-03-15T08:37:55.576Z,45.34
2023-03-15T08:40:26.583Z,43.38
2023-03-15T08:42:55.504Z,43.56
2023-03-15T08:45:24.269Z,44.79
2023-03-15T08:47:56.444Z,44.26
2023-03-15T08:50:25.215Z,44.70
2023-03-15T08:52:53.475Z,44.05
2023-03-15T08:55:21.788Z,44.01
2023-03-15T08:57:50.036Z,43.52
2023-03-15T09:00:20.942Z,44.38
2023-03-15T09:02:50.051Z,43.25
2023-03-15T09:05:19.985Z,43.05
2023-03-15T09:07:48.958Z,43.37
2023-03-15T09:10:18.641Z,44.23
2023-03-15T09:12:49.571Z,42.91
2023-03-15T09:15:19.338Z,42.90
2023-03-15T09:17:47.735Z,43.33
2023-03-15T09:20:16.931Z,42.47
2023-03-15T09:22:52.611Z,42.08
2023-03-15T09:25:21.289Z,41.71
2023-03-15T09:27:49.895Z,41.24
2023-03-15T09:30:19.013Z,41.69
2023-03-15T09:32:47.313Z,41.12
2023-03-15T09:35:17.787Z,41.68
2023-03-15T09:37:47.539Z,40.45
2023-03-15T09:40:21.189Z,40.42
2023-03-15T09:42:58.536Z,40.38
2023-03-15T09:45:33.311Z,40.40
2023-03-15T09:48:07.230Z,41.03
2023-03-15T09:50:42.685Z,40.25
2023-03-15T09:53:16.921Z,40.74
2023-03-15T09:55:48.309Z,40.42
2023-03-15T09:58:20.918Z,40.94
2023-03-15T10:00:52.384Z,40.51
2023-03-15T10:03:28.640Z,39.81
2023-03-15T10:06:00.220Z,40.93
2023-03-15T10:08:29.956Z,40.99
2023-03-15T10:11:15.931Z,40.51
2023-03-15T10:13:59.782Z,41.02
2023-03-15T10:16:39.506Z,41.99
2023-03-15T10:19:17.335Z,45.10
2023-03-15T10:21:55.758Z,49.97
2023-03-15T10:24:34.063Z,54.82
2023-03-15T10:27:15.491Z,56.34
2023-03-15T10:29:44.477Z,58.17
2023-03-15T10:32:19.101Z,58.62
2023-03-15T10:34:51.054Z,58.16
2023-03-15T10:37:19.491Z,57.89
2023-03-15T10:39:53.546Z,57.06
2023-03-15T10:42:30.282Z,56.38
2023-03-15T10:45:00.415Z,55.64
2023-03-15T10:47:29.349Z,54.71
2023-03-15T10:49:59.110Z,52.85
2023-03-15T10:52:35.817Z,51.99
2023-03-15T10:55:12.381Z,49.38
2023-03-15T10:57:43.340Z,49.24
2023-03-15T11:00:31.296Z,48.21
2023-03-15T11:03:04.713Z,47.36
2023-03-15T11:05:38.253Z,46.08
2023-03-15T11:08:14.374Z,45.83
2023-03-15T11:10:45.477Z,42.04
2023-03-15T11:13:20.622Z,39.97
2023-03-15T11:15:56.182Z,39.18
2023-03-15T11:18:29.640Z,38.63
2023-03-15T11:20:59.913Z,38.16
2023-03-15T11:23:31.060Z,37.26
2023-03-15T11:26:01.479Z,37.69
2023-03-15T11:28:32.313Z,39.08
2023-03-15T11:31:02.013Z,37.53
2023-03-15T11:33:42.693Z,36.97
2023-03-15T11:36:17.482Z,37.13
2023-03-15T11:38:46.721Z,37.67
2023-03-15T11:41:29.028Z,37.32
2023-03-15T11:44:05.025Z,36.21
2023-03-15T11:46:37.525Z,36.60
2023-03-15T11:49:17.050Z,36.95
2023-03-15T11:51:45.427Z,35.71
2023-03-15T11:54:16.140Z,35.76
2023-03-15T11:57:05.491Z,34.56
2023-03-15T11:59:35.850Z,34.69
2023-03-15T12:02:38.556Z,33.01
2023-03-15T12:05:17.985Z,35.26
2023-03-15T12:08:01.256Z,33.64
2023-03-15T12:10:46.621Z,34.07
2023-03-15T12:13:24.331Z,32.94
2023-03-15T12:15:53.356Z,32.35
2023-03-15T12:18:44.321Z,32.66
2023-03-15T12:21:16.743Z,32.63
2023-03-15T12:23:50.034Z,30.99
2023-03-15T12:26:41.773Z,30.14
2023-03-15T12:29:18.113Z,30.32
2023-03-15T12:31:57.702Z,30.07
2023-03-15T12:34:31.849Z,30.63
2023-03-15T12:37:05.891Z,29.94
2023-03-15T12:39:52.930Z,30.18
2023-03-15T12:43:02.081Z,30.63
2023-03-15T12:45:38.990Z,30.56
2023-03-15T12:48:31.803Z,29.90
2023-03-15T12:51:06.676Z,31.12
2023-03-15T12:53:49.450Z,30.53
2023-03-15T12:56:29.531Z,29.93
2023-03-15T12:59:05.053Z,28.84
2023-03-15T13:01:35.972Z,30.00
2023-03-15T13:04:05.209Z,30.22
2023-03-15T13:06:46.782Z,29.21
2023-03-15T13:09:29.043Z,29.22
2023-03-15T13:12:02.544Z,28.83
2023-03-15T13:14:43.170Z,27.63
2023-03-15T13:17:22.889Z,27.63
2023-03-15T13:19:57.334Z,27.75
2023-03-15T13:22:33.459Z,28.26
2023-03-15T13:25:11.008Z,27.17
2023-03-15T13:27:51.135Z,26.88
2023-03-15T13:30:32.265Z,26.38
2023-03-15T13:33:22.640Z,26.46
2023-03-15T13:35:57.490Z,25.41
2023-03-15T13:38:28.777Z,24.33
2023-03-15T13:40:58.558Z,24.03
2023-03-15T13:43:28.874Z,24.42
2023-03-15T13:45:58.844Z,23.99
2023-03-15T13:48:34.433Z,23.96
2023-03-15T13:51:07.310Z,24.40
2023-03-15T13:53:48.907Z,25.19
2023-03-15T13:56:20.208Z,26.22
2023-03-15T13:58:50.288Z,26.46
2023-03-15T14:01:19.585Z,25.92
2023-03-15T14:03:56.853Z,26.91
2023-03-15T14:06:27.747Z,27.04
2023-03-15T14:09:02.224Z,26.29
2023-03-15T14:11:37.442Z,26.80
2023-03-15T14:14:23.311Z,25.27
2023-03-15T14:17:04.330Z,25.48
2023-03-15T14:19:37.172Z,24.48
2023-03-15T14:22:14.070Z,23.86
2023-03-15T14:24:44.509Z,23.51
2023-03-15T14:27:18.053Z,23.16
2023-03-15T14:29:48.960Z,23.04
2023-03-15T14:32:28.390Z,22.69
2023-03-15T14:35:08.163Z,22.04
2023-03-15T14:37:39.264Z,21.80
2023-03-15T14:40:21.172Z,22.05
2023-03-15T14:42:50.810Z,23.28
2023-03-15T14:45:22.302Z,24.22
2023-03-15T14:47:57.177Z,24.90
2023-03-15T14:50:31.033Z,25.48
2023-03-15T14:53:00.184Z,25.63
2023-03-15T14:55:33.635Z,25.98
2023-03-15T14:58:02.228Z,26.42
2023-03-15T15:00:31.308Z,26.07
2023-03-15T15:03:00.181Z,25.07
2023-03-15T15:05:31.646Z,23.60
2023-03-15T15:08:05.020Z,22.23
2023-03-15T15:10:35.008Z,20.98
2023-03-15T15:13:06.795Z,20.03
2023-03-15T15:15:53.943Z,18.55
2023-03-15T15:18:23.962Z,17.78
2023-03-15T15:20:56.247Z,16.70
2023-03-15T15:23:27.570Z,16.14
2023-03-15T15:25:59.033Z,16.58
2023-03-15T15:28:37.201Z,16.60
2023-03-15T15:31:07.544Z,16.83
2023-03-15T15:33:35.870Z,16.54
2023-03-15T15:36:11.538Z,15.71
2023-03-15T15:38:40.388Z,15.48
2023-03-15T15:41:14.915Z,15.12
2023-03-15T15:43:43.972Z,15.57
2023-03-15T15:46:13.801Z,16.37
2023-03-15T15:48:42.488Z,16.99
2023-03-15T15:51:27.183Z,18.55
2023-03-15T15:53:59.196Z,19.58
2023-03-15T15:56:33.353Z,20.80
2023-03-15T15:59:03.182Z,22.41
2023-03-15T16:01:31.889Z,24.18
2023-03-15T16:04:01.732Z,25.64
2023-03-15T16:06:32.661Z,26.64
2023-03-15T16:09:01.074Z,27.37
2023-03-15T16:11:30.152Z,27.40
2023-03-15T16:13:58.389Z,27.84
2023-03-15T16:16:27.650Z,28.24
2023-03-15T16:18:56.109Z,28.73
2023-03-15T16:21:34.017Z,28.85
2023-03-15T16:24:07.696Z,28.98
2023-03-15T16:26:40.694Z,29.42
2023-03-15T16:29:17.684Z,29.70
2023-03-15T16:31:46.178Z,29.23
2023-03-15T16:34:16.263Z,29.62
2023-03-15T16:36:49.896Z,29.65
2023-03-15T16:39:18.767Z,30.20
2023-03-15T16:41:47.023Z,30.05
2023-03-15T16:44:16.917Z,30.49
2023-03-15T16:46:45.342Z,30.57
2023-03-15T16:49:15.539Z,31.17
2023-03-15T16:51:49.139Z,30.83
2023-03-15T16:54:30.624Z,31.27
2023-03-15T16:57:12.751Z,31.22
2023-03-15T16:59:41.076Z,31.92
2023-03-15T17:02:18.736Z,31.93
2023-03-15T17:04:47.206Z,32.12
2023-03-15T17:07:17.779Z,31.79
2023-03-15T17:09:48.208Z,32.10
2023-03-15T17:12:22.665Z,32.33
2023-03-15T17:14:51.998Z,32.11
2023-03-15T17:17:20.234Z,32.53
2023-03-15T17:19:49.462Z,32.38
2023-03-15T17:22:19.725Z,32.96
2023-03-15T17:24:48.644Z,32.41
2023-03-15T17:27:23.873Z,33.47
2023-03-15T17:29:52.680Z,33.29
2023-03-15T17:32:21.029Z,34.29
2023-03-15T17:34:49.337Z,35.60
2023-03-15T17:37:20.058Z,34.90
2023-03-15T17:39:48.860Z,33.32
2023-03-15T17:42:17.298Z,33.02
2023-03-15T17:44:45.496Z,33.19
2023-03-15T17:47:14.216Z,33.64
2023-03-15T17:49:42.486Z,34.03
2023-03-15T17:52:17.416Z,33.96
2023-03-15T17:54:47.780Z,35.27
2023-03-15T17:57:16.062Z,36.70
2023-03-15T17:59:44.461Z,37.33
2023-03-15T18:02:16.456Z,39.12
2023-03-15T18:04:44.765Z,37.63
2023-03-15T18:07:13.247Z,36.48
2023-03-15T18:09:41.561Z,37.86
2023-03-15T18:12:15.244Z,37.80
2023-03-15T18:14:43.662Z,39.17
2023-03-15T18:17:12.446Z,38.63
2023-03-15T18:19:40.736Z,38.16
2023-03-15T18:22:18.664Z,38.82
2023-03-15T18:24:47.292Z,39.70
2023-03-15T18:27:16.932Z,39.17
2023-03-15T18:29:45.035Z,41.00
2023-03-15T18:32:13.393Z,41.90
2023-03-15T18:34:41.618Z,41.22
2023-03-15T18:37:18.015Z,41.50
2023-03-15T18:39:46.382Z,41.49
2023-03-15T18:42:14.672Z,41.93
2023-03-15T18:44:45.132Z,41.87
2023-03-15T18:47:13.958Z,42.24
2023-03-15T18:49:42.130Z,43.39
2023-03-15T18:52:13.459Z,41.98
2023-03-15T18:54:41.618Z,42.66
2023-03-15T18:57:10.265Z,43.65
2023-03-15T18:59:38.596Z,41.42
2023-03-15T19:02:09.443Z,42.52
2023-03-15T19:04:37.657Z,42.15
2023-03-15T19:07:06.091Z,43.10
2023-03-15T19:09:34.371Z,44.16
2023-03-15T19:12:03.202Z,43.51
2023-03-15T19:14:31.481Z,41.50
2023-03-15T19:17:00.289Z,41.92
2023-03-15T19:19:30.376Z,43.78
2023-03-15T19:21:59.032Z,43.80
2023-03-15T19:24:27.310Z,42.92
2023-03-15T19:26:55.478Z,44.51
2023-03-15T19:29:24.101Z,43.26
2023-03-15T19:31:52.374Z,44.20
2023-03-15T19:34:20.976Z,44.89
2023-03-15T19:36:50.676Z,44.63
2023-03-15T19:39:19.214Z,46.19
2023-03-15T19:41:47.518Z,44.44
2023-03-15T19:44:16.503Z,45.60
2023-03-15T19:46:45.461Z,46.02
2023-03-15T19:49:13.900Z,45.09
2023-03-15T19:51:42.028Z,45.37
2023-03-15T19:54:11.747Z,45.61
2023-03-15T19:56:40.099Z,46.21
2023-03-15T19:59:08.397Z,46.27
2023-03-15T20:01:36.778Z,46.56
2023-03-15T20:04:05.165Z,45.87
2023-03-15T20:06:33.415Z,46.27
2023-03-15T20:09:01.941Z,46.56
2023-03-15T20:11:31.646Z,47.15
2023-03-15T20:13:59.927Z,45.87
2023-03-15T20:16:28.194Z,47.42
2023-03-15T20:18:56.943Z,47.92
2023-03-15T20:21:25.283Z,47.48
2023-03-15T20:23:54.205Z,47.25
2023-03-15T20:26:24.003Z,46.56
2023-03-15T20:28:53.815Z,46.61
2023-03-15T20:31:22.080Z,45.21
2023-03-15T20:33:51.690Z,43.62
2023-03-15T20:36:20.415Z,43.15
2023-03-15T20:38:48.641Z,42.85
2023-03-15T20:41:18.412Z,41.65
2023-03-15T20:43:48.074Z,42.71
2023-03-15T20:46:19.394Z,42.52
2023-03-15T20:48:47.742Z,42.61
2023-03-15T20:51:15.915Z,42.42
2023-03-15T20:53:44.302Z,42.52
2023-03-15T20:56:12.552Z,43.32
2023-03-15T20:58:40.685Z,43.84
2023-03-15T21:01:10.677Z,44.54
2023-03-15T21:03:40.597Z,44.41
2023-03-15T21:06:09.439Z,45.45
2023-03-15T21:08:37.812Z,44.58
2023-03-15T21:11:07.434Z,44.30
2023-03-15T21:13:36.679Z,45.27
2023-03-15T21:16:05.433Z,45.66
2023-03-15T21:18:36.097Z,47.87
2023-03-15T21:21:08.382Z,47.70
2023-03-15T21:23:37.118Z,46.20
2023-03-15T21:26:08.649Z,46.43
2023-03-15T21:28:36.928Z,46.41
2023-03-15T21:31:05.681Z,46.29
2023-03-15T21:33:35.652Z,46.56
2023-03-15T21:36:06.141Z,46.88
2023-03-15T21:38:36.361Z,46.82
2023-03-15T21:41:09.326Z,46.78
2023-03-15T21:43:38.200Z,46.85
2023-03-15T21:46:08.957Z,46.97
2023-03-15T21:48:38.194Z,46.86
2023-03-15T21:51:08.333Z,47.53
2023-03-15T21:53:38.532Z,47.63
2023-03-15T21:56:07.313Z,47.86
2023-03-15T21:58:35.603Z,47.53
2023-03-15T22:01:06.387Z,48.96
2023-03-15T22:03:36.308Z,49.12
2023-03-15T22:06:05.047Z,50.03
2023-03-15T22:08:34.750Z,49.17
2023-03-15T22:11:04.790Z,49.42
2023-03-15T22:13:33.041Z,49.54
2023-03-15T22:16:01.541Z,49.97
2023-03-15T22:18:30.194Z,50.33
2023-03-15T22:20:58.449Z,50.67
2023-03-15T22:23:26.720Z,50.63
2023-03-15T22:25:57.379Z,51.49
2023-03-15T22:28:26.359Z,50.99
2023-03-15T22:30:54.977Z,50.85
2023-03-15T22:33:23.783Z,50.85
2023-03-15T22:35:56.977Z,52.64
2023-03-15T22:38:26.572Z,52.44
2023-03-15T22:41:04.136Z,52.47
2023-03-15T22:43:32.377Z,52.67
2023-03-15T22:46:00.996Z,51.87
2023-03-15T22:48:29.529Z,51.81
2023-03-15T22:51:00.068Z,52.49
2023-03-15T22:53:28.619Z,52.37
2023-03-15T22:55:56.770Z,52.75
2023-03-15T22:58:27.998Z,52.63
2023-03-15T23:00:56.379Z,52.69
2023-03-15T23:03:24.817Z,52.60
2023-03-15T23:05:53.444Z,52.73
2023-03-15T23:08:22.888Z,53.52
2023-03-15T23:10:51.688Z,54.48
2023-03-15T23:13:20.043Z,53.96
2023-03-15T23:15:49.845Z,53.47
2023-03-15T23:18:18.107Z,53.27
2023-03-15T23:20:46.045Z,53.42
2023-03-15T23:23:14.234Z,53.46
2023-03-15T23:25:43.243Z,53.43
2023-03-15T23:28:11.482Z,52.87
2023-03-15T23:30:41.473Z,53.36
2023-03-15T23:33:11.244Z,53.76
2023-03-15T23:35:39.609Z,53.62
2023-03-15T23:38:08.642Z,53.80
2023-03-15T23:40:36.954Z,54.26
2023-03-15T23:43:05.996Z,54.25
2023-03-15T23:45:34.235Z,53.59
2023-03-15T23:48:03.005Z,54.23
2023-03-15T23:50:32.501Z,54.57
2023-03-15T23:53:00.776Z,55.77
2023-03-15T23:55:29.486Z,56.26
2023-03-15T23:57:57.665Z,57.08
